Time;durP1;ratioP1;P1;durP2;ratioP2;P2;SDS_P1;SDS_P2;PMS_P1;PMS_P2;Temp;Humidity;BMP_temperature;BMP_pressure;BME280_temperature;BME280_humidity;BME280_pressure;Samples;Min_cycle;Max_cycle;Signal;HPM_P1;HPM_P2
2022/03/11 00:00:25;;;;;;;5.05;4.13;;;11.20;99.90;;;;;;5061037;28;20479;-59
2022/03/11 00:02:51;;;;;;;5.60;4.32;;;11.20;99.90;;;;;;5060481;28;20048;-60
2022/03/11 00:05:19;;;;;;;5.75;4.28;;;11.20;99.90;;;;;;5064602;28;20044;-60
2022/03/11 00:07:45;;;;;;;5.45;4.85;;;11.20;99.90;;;;;;5050700;28;20123;-60
2022/03/11 00:10:12;;;;;;;5.15;4.38;;;11.20;99.90;;;;;;5058370;28;20131;-59
2022/03/11 00:12:39;;;;;;;6.03;4.35;;;11.30;99.90;;;;;;5060348;28;20091;-59
2022/03/11 00:15:06;;;;;;;6.30;5.05;;;11.30;99.90;;;;;;5052950;28;20463;-59
2022/03/11 00:17:34;;;;;;;5.70;4.43;;;11.30;99.90;;;;;;5030910;28;20060;-60
2022/03/11 00:20:01;;;;;;;5.57;4.85;;;11.30;99.90;;;;;;5039398;28;20130;-59
2022/03/11 00:22:28;;;;;;;6.70;5.15;;;11.40;99.90;;;;;;5035717;28;20092;-59
2022/03/11 00:24:55;;;;;;;5.10;4.15;;;11.40;99.90;;;;;;5059231;28;20045;-59
2022/03/11 00:27:22;;;;;;;5.00;4.45;;;11.40;99.90;;;;;;5059414;28;20476;-60
2022/03/11 00:29:49;;;;;;;5.05;4.55;;;11.40;99.90;;;;;;5060122;28;20608;-59
2022/03/11 00:32:16;;;;;;;6.45;4.68;;;11.40;99.90;;;;;;5059682;28;20175;-60
2022/03/11 00:34:43;;;;;;;6.07;5.15;;;11.50;99.90;;;;;;5056276;28;20137;-59
2022/03/11 00:37:09;;;;;;;5.28;4.57;;;11.50;99.90;;;;;;5041468;28;20045;-60
2022/03/11 00:39:36;;;;;;;5.90;5.07;;;11.50;99.90;;;;;;5041298;28;20079;-59
2022/03/11 00:42:03;;;;;;;5.63;4.97;;;11.50;99.90;;;;;;5045551;28;20152;-60
2022/03/11 00:44:30;;;;;;;6.45;4.82;;;11.50;99.90;;;;;;5059436;28;20127;-59
2022/03/11 00:46:57;;;;;;;6.40;4.88;;;11.50;99.90;;;;;;5040855;28;20080;-60
2022/03/11 00:49:24;;;;;;;5.38;4.63;;;11.50;99.90;;;;;;5039850;28;20196;-59
2022/03/11 00:51:50;;;;;;;6.43;5.10;;;11.50;99.90;;;;;;5026070;28;20079;-60
2022/03/11 00:54:17;;;;;;;5.68;5.10;;;11.50;99.90;;;;;;5059597;28;20216;-59
2022/03/11 00:56:44;;;;;;;6.65;5.05;;;11.50;99.90;;;;;;5059077;28;20057;-59
2022/03/11 00:59:11;;;;;;;5.40;4.82;;;11.50;99.90;;;;;;5059531;28;20116;-60
2022/03/11 01:01:38;;;;;;;6.38;5.30;;;11.50;99.90;;;;;;5059549;28;20084;-59
2022/03/11 01:04:04;;;;;;;6.55;5.13;;;11.50;99.90;;;;;;5058172;28;20041;-59
2022/03/11 01:06:31;;;;;;;7.07;5.40;;;11.50;99.90;;;;;;5059725;28;20204;-60
2022/03/11 01:08:58;;;;;;;6.30;5.35;;;11.50;99.90;;;;;;5059613;28;20132;-60
2022/03/11 01:11:25;;;;;;;6.22;5.22;;;11.50;99.90;;;;;;5027673;28;20657;-59
2022/03/11 01:13:52;;;;;;;5.53;4.93;;;11.50;99.90;;;;;;5058594;28;20442;-59
2022/03/11 01:16:19;;;;;;;5.80;5.15;;;11.50;99.90;;;;;;5059128;28;20483;-59
2022/03/11 01:18:45;;;;;;;7.05;5.40;;;11.50;99.90;;;;;;5039750;28;20597;-60
2022/03/11 01:21:13;;;;;;;5.82;5.05;;;11.50;99.90;;;;;;5040699;28;20052;-60
2022/03/11 01:23:39;;;;;;;5.80;5.07;;;11.50;99.90;;;;;;5061158;28;20044;-60
2022/03/11 01:26:06;;;;;;;5.65;4.97;;;11.50;99.90;;;;;;5062417;28;20629;-59
2022/03/11 01:28:33;;;;;;;6.03;5.18;;;11.50;99.90;;;;;;5062954;28;20080;-59
2022/03/11 01:31:00;;;;;;;6.85;5.72;;;11.50;99.90;;;;;;5063810;28;20083;-59
2022/03/11 01:33:27;;;;;;;5.20;4.70;;;11.50;99.90;;;;;;5058433;28;20048;-60
2022/03/11 01:35:54;;;;;;;5.40;4.82;;;11.50;99.90;;;;;;5062845;28;20095;-60
2022/03/11 01:38:20;;;;;;;5.80;5.20;;;11.50;99.90;;;;;;5063169;28;20080;-60
2022/03/11 01:40:47;;;;;;;7.45;6.05;;;11.50;99.90;;;;;;5063295;28;20407;-59
2022/03/11 01:43:15;;;;;;;5.97;5.05;;;11.50;99.90;;;;;;5063070;28;20855;-59
2022/03/11 01:45:42;;;;;;;6.97;5.78;;;11.50;99.90;;;;;;5063471;28;20676;-60
2022/03/11 01:48:10;;;;;;;6.78;5.97;;;11.40;99.90;;;;;;5061819;28;20049;-60
2022/03/11 01:50:40;;;;;;;5.85;5.25;;;11.40;99.90;;;;;;5062402;28;20444;-58
2022/03/11 01:53:11;;;;;;;6.05;5.38;;;11.40;99.90;;;;;;5063254;28;20200;-59
2022/03/11 01:55:37;;;;;;;6.78;5.53;;;11.40;99.90;;;;;;5044451;28;20140;-59
2022/03/11 01:58:05;;;;;;;6.80;5.57;;;11.40;99.90;;;;;;5063151;28;20395;-59
2022/03/11 02:00:34;;;;;;;6.47;5.60;;;11.40;99.90;;;;;;5028291;28;20045;-59
2022/03/11 02:03:01;;;;;;;7.97;6.20;;;11.40;99.90;;;;;;5050467;28;20098;-60
2022/03/11 02:05:28;;;;;;;8.13;6.22;;;11.40;99.90;;;;;;5043553;28;20585;-59
2022/03/11 02:07:58;;;;;;;6.68;5.90;;;11.40;99.90;;;;;;5062730;28;20116;-60
2022/03/11 02:10:30;;;;;;;6.95;6.22;;;11.40;99.90;;;;;;5055942;28;20076;-59
2022/03/11 02:13:00;;;;;;;7.55;5.45;;;11.40;99.90;;;;;;5054811;28;20076;-59
2022/03/11 02:15:27;;;;;;;6.03;5.03;;;11.40;99.90;;;;;;5059479;28;20506;-59
2022/03/11 02:17:54;;;;;;;7.80;5.78;;;11.40;99.90;;;;;;5062306;28;20482;-59
2022/03/11 02:20:20;;;;;;;6.60;4.95;;;11.40;99.90;;;;;;5043672;28;20077;-59
2022/03/11 02:22:50;;;;;;;6.18;5.18;;;11.40;99.90;;;;;;5053376;28;20227;-59
2022/03/11 02:25:17;;;;;;;5.88;5.28;;;11.40;99.90;;;;;;5062130;28;20352;-59
2022/03/11 02:27:46;;;;;;;6.32;5.03;;;11.40;99.90;;;;;;5043284;28;20527;-60
2022/03/11 02:30:20;;;;;;;6.80;5.30;;;11.40;99.90;;;;;;5044211;28;20076;-60
2022/03/11 02:32:47;;;;;;;7.95;6.43;;;11.40;99.90;;;;;;5058818;28;20444;-59
2022/03/11 02:35:14;;;;;;;6.38;5.68;;;11.40;99.90;;;;;;5026448;28;20048;-60
2022/03/11 02:37:41;;;;;;;6.25;5.13;;;11.30;99.90;;;;;;5045674;28;20346;-59
2022/03/11 02:40:08;;;;;;;7.32;5.45;;;11.30;99.90;;;;;;5045242;28;20072;-59
2022/03/11 02:42:35;;;;;;;6.00;5.07;;;11.30;99.90;;;;;;5052892;28;20135;-60
2022/03/11 02:45:03;;;;;;;6.28;5.03;;;11.30;99.90;;;;;;5045836;28;20071;-59
2022/03/11 02:47:30;;;;;;;6.13;5.30;;;11.30;99.90;;;;;;5063328;28;20044;-58
2022/03/11 02:49:56;;;;;;;6.45;5.43;;;11.30;99.90;;;;;;5044059;28;20136;-60
2022/03/11 02:52:25;;;;;;;6.38;5.35;;;11.30;99.90;;;;;;5051649;28;20159;-59
2022/03/11 02:54:52;;;;;;;6.00;5.40;;;11.20;99.90;;;;;;5064172;28;20127;-60
2022/03/11 02:57:19;;;;;;;6.45;5.57;;;11.20;99.90;;;;;;5063712;28;20143;-60
2022/03/11 02:59:46;;;;;;;8.07;5.45;;;11.20;99.90;;;;;;5044909;28;20448;-60
2022/03/11 03:02:13;;;;;;;6.82;5.95;;;11.20;99.90;;;;;;5049459;28;20598;-60
2022/03/11 03:04:39;;;;;;;5.90;5.30;;;11.20;99.90;;;;;;5062234;28;20487;-60
2022/03/11 03:07:07;;;;;;;6.10;5.00;;;11.10;99.90;;;;;;5064320;28;20135;-60
2022/03/11 03:09:41;;;;;;;6.22;5.00;;;11.10;99.90;;;;;;5045965;28;20491;-60
2022/03/11 03:12:09;;;;;;;6.55;5.13;;;11.10;99.90;;;;;;5062706;28;20057;-59
2022/03/11 03:14:37;;;;;;;6.32;5.35;;;11.00;99.90;;;;;;5063386;28;20076;-59
2022/03/11 03:17:04;;;;;;;7.10;5.60;;;10.90;99.90;;;;;;5063038;28;20060;-59
2022/03/11 03:19:31;;;;;;;6.95;5.57;;;10.70;99.90;;;;;;5062533;28;20320;-60
2022/03/11 03:21:58;;;;;;;6.63;5.57;;;10.70;99.90;;;;;;5051276;28;20076;-60
2022/03/11 03:24:25;;;;;;;6.18;5.07;;;10.60;99.90;;;;;;5063349;28;20550;-59
2022/03/11 03:26:52;;;;;;;5.25;4.55;;;10.50;99.90;;;;;;5062913;28;20649;-59
2022/03/11 03:29:18;;;;;;;6.90;6.07;;;10.50;99.90;;;;;;5063106;28;20110;-60
2022/03/11 03:31:45;;;;;;;5.75;4.63;;;10.40;99.90;;;;;;5063143;28;20180;-59
2022/03/11 03:34:12;;;;;;;5.88;5.13;;;10.30;99.90;;;;;;5061270;28;20040;-59
2022/03/11 03:36:39;;;;;;;7.50;5.72;;;10.30;99.90;;;;;;5063095;28;20091;-59
2022/03/11 03:39:05;;;;;;;6.20;5.18;;;10.20;99.90;;;;;;5045494;28;20135;-60
2022/03/11 03:41:34;;;;;;;6.38;5.60;;;10.20;99.90;;;;;;5062643;28;20102;-59
2022/03/11 03:44:00;;;;;;;6.70;5.57;;;10.20;99.90;;;;;;5061412;28;20076;-59
2022/03/11 03:46:27;;;;;;;7.20;5.68;;;10.10;99.90;;;;;;5045091;28;20056;-59
2022/03/11 03:48:54;;;;;;;7.80;5.55;;;10.20;99.90;;;;;;5061974;28;20048;-60
2022/03/11 03:51:21;;;;;;;7.03;6.00;;;10.10;99.90;;;;;;5062491;28;20076;-60
2022/03/11 03:53:47;;;;;;;7.63;5.88;;;10.10;99.90;;;;;;5049573;28;20152;-59
2022/03/11 03:56:14;;;;;;;7.53;5.57;;;10.00;99.90;;;;;;5043885;28;20449;-60
2022/03/11 03:58:41;;;;;;;6.68;5.18;;;10.00;99.90;;;;;;5043946;28;20072;-59
2022/03/11 04:01:07;;;;;;;7.28;5.45;;;9.90;99.90;;;;;;5044079;28;20132;-59
2022/03/11 04:03:35;;;;;;;6.35;5.13;;;9.80;99.90;;;;;;5057191;28;20113;-59
2022/03/11 04:06:02;;;;;;;6.60;5.38;;;9.80;99.90;;;;;;5062757;28;20048;-59
2022/03/11 04:08:30;;;;;;;6.72;5.18;;;9.80;99.90;;;;;;5044435;28;20106;-59
2022/03/11 04:10:56;;;;;;;6.88;5.70;;;9.70;99.90;;;;;;5042974;28;20500;-59
2022/03/11 04:13:23;;;;;;;6.70;5.55;;;9.70;99.90;;;;;;5056727;28;20166;-59
2022/03/11 04:15:50;;;;;;;8.07;5.75;;;9.60;99.90;;;;;;5062240;28;20542;-59
2022/03/11 04:18:17;;;;;;;7.13;5.80;;;9.60;99.90;;;;;;5060694;28;20361;-59
2022/03/11 04:20:44;;;;;;;6.85;5.72;;;9.50;99.90;;;;;;5046530;28;20084;-59
2022/03/11 04:23:10;;;;;;;8.18;6.38;;;9.50;99.90;;;;;;5054482;28;20088;-59
2022/03/11 04:25:37;;;;;;;6.28;5.32;;;9.50;99.90;;;;;;5061059;28;20127;-59
2022/03/11 04:28:04;;;;;;;7.85;5.88;;;9.50;99.90;;;;;;5043141;28;20052;-59
2022/03/11 04:30:31;;;;;;;8.48;5.93;;;9.40;99.90;;;;;;5061964;28;20135;-59
2022/03/11 04:32:58;;;;;;;8.77;6.82;;;9.40;99.90;;;;;;5061052;28;20091;-58
2022/03/11 04:35:25;;;;;;;7.82;6.57;;;9.40;99.90;;;;;;5061346;28;20090;-59
2022/03/11 04:37:51;;;;;;;6.55;5.63;;;9.30;99.90;;;;;;5062068;28;20147;-60
2022/03/11 04:40:18;;;;;;;7.70;6.07;;;9.30;99.90;;;;;;5061626;28;20094;-59
2022/03/11 04:42:45;;;;;;;6.70;5.40;;;9.30;99.90;;;;;;5061554;28;20127;-59
2022/03/11 04:45:11;;;;;;;8.48;6.05;;;9.30;99.90;;;;;;5061597;28;20659;-59
2022/03/11 04:47:38;;;;;;;7.80;5.88;;;9.20;99.90;;;;;;5060581;28;20160;-59
2022/03/11 04:50:05;;;;;;;6.50;5.45;;;9.20;99.90;;;;;;5060441;28;20052;-59
2022/03/11 04:52:33;;;;;;;7.07;6.03;;;9.10;99.90;;;;;;5049975;28;20132;-59
2022/03/11 04:55:00;;;;;;;6.95;5.70;;;9.10;99.90;;;;;;5061451;28;20136;-59
2022/03/11 04:57:27;;;;;;;7.07;6.03;;;9.10;99.90;;;;;;5062289;28;20080;-59
2022/03/11 04:59:54;;;;;;;7.53;6.20;;;9.10;99.90;;;;;;5065738;28;20080;-59
2022/03/11 05:02:27;;;;;;;7.35;5.88;;;9.00;99.90;;;;;;5052881;28;20175;-58
2022/03/11 05:04:54;;;;;;;6.18;5.38;;;9.00;99.90;;;;;;5064683;28;20516;-59
2022/03/11 05:07:21;;;;;;;7.95;5.72;;;9.00;99.90;;;;;;5047532;28;20087;-60
2022/03/11 05:09:48;;;;;;;7.60;6.28;;;8.90;99.90;;;;;;5046922;28;20045;-59
2022/03/11 05:12:15;;;;;;;7.05;6.30;;;8.90;99.90;;;;;;5059072;28;20091;-60
2022/03/11 05:14:42;;;;;;;7.07;6.30;;;8.80;99.90;;;;;;5066057;28;20122;-59
2022/03/11 05:17:08;;;;;;;7.45;6.25;;;8.80;99.90;;;;;;5066570;28;20140;-59
2022/03/11 05:19:35;;;;;;;8.10;5.93;;;8.80;99.90;;;;;;5064599;28;20052;-60
2022/03/11 05:22:02;;;;;;;8.10;6.60;;;8.80;99.90;;;;;;5066273;28;20088;-59
2022/03/11 05:24:29;;;;;;;6.72;5.93;;;8.80;99.90;;;;;;5065756;28;20084;-59
2022/03/11 05:26:57;;;;;;;7.47;6.32;;;8.70;99.90;;;;;;5065607;28;20060;-59
2022/03/11 05:29:24;;;;;;;7.90;6.40;;;8.80;99.90;;;;;;5066552;28;20087;-59
2022/03/11 05:31:51;;;;;;;8.60;6.80;;;8.80;99.90;;;;;;5066187;28;20109;-59
2022/03/11 05:34:18;;;;;;;8.95;6.43;;;8.80;99.90;;;;;;5063433;28;20113;-59
2022/03/11 05:36:44;;;;;;;7.82;6.20;;;8.90;99.90;;;;;;5065218;28;20184;-59
2022/03/11 05:39:11;;;;;;;7.68;6.05;;;8.90;99.90;;;;;;5066274;28;20135;-59
2022/03/11 05:41:38;;;;;;;8.13;6.63;;;8.90;99.90;;;;;;5065543;28;20080;-59
2022/03/11 05:44:05;;;;;;;8.55;6.78;;;8.90;99.90;;;;;;5064990;28;20072;-58
2022/03/11 05:46:32;;;;;;;7.65;6.80;;;8.90;99.90;;;;;;5062239;28;20044;-58
2022/03/11 05:48:59;;;;;;;9.05;7.03;;;8.90;99.90;;;;;;5053071;28;20131;-59
2022/03/11 05:51:26;;;;;;;8.15;6.97;;;8.90;99.90;;;;;;5056512;28;20080;-59
2022/03/11 05:53:53;;;;;;;8.40;7.20;;;9.00;99.90;;;;;;5060993;28;20072;-59
2022/03/11 05:56:20;;;;;;;8.35;6.72;;;9.00;99.90;;;;;;5062630;28;20102;-58
2022/03/11 05:58:49;;;;;;;7.72;6.72;;;9.00;99.90;;;;;;5061897;28;20056;-59
2022/03/11 06:01:17;;;;;;;7.88;7.03;;;9.00;99.90;;;;;;5063652;28;20140;-60
2022/03/11 06:03:46;;;;;;;8.38;7.13;;;9.00;99.90;;;;;;5057634;28;20444;-59
2022/03/11 06:06:14;;;;;;;7.68;6.80;;;9.10;99.90;;;;;;5063014;28;20045;-59
2022/03/11 06:08:40;;;;;;;8.93;7.35;;;9.10;99.90;;;;;;5044737;28;20048;-59
2022/03/11 06:11:08;;;;;;;9.73;7.55;;;9.20;99.90;;;;;;5056117;28;20127;-60
2022/03/11 06:13:38;;;;;;;9.40;7.03;;;9.20;99.90;;;;;;5062984;28;20586;-60
2022/03/11 06:16:05;;;;;;;9.38;7.65;;;9.20;99.90;;;;;;5062801;28;20124;-60
2022/03/11 06:18:32;;;;;;;8.60;7.18;;;9.20;99.90;;;;;;5061544;28;20168;-60
2022/03/11 06:20:59;;;;;;;8.32;6.80;;;9.20;99.90;;;;;;5060041;28;20357;-60
2022/03/11 06:23:25;;;;;;;10.10;7.85;;;9.20;99.90;;;;;;5051885;28;20056;-60
2022/03/11 06:25:52;;;;;;;9.32;7.00;;;9.20;99.90;;;;;;5050917;28;20076;-59
2022/03/11 06:28:20;;;;;;;9.43;7.60;;;9.10;99.90;;;;;;5051427;28;20063;-60
2022/03/11 06:30:47;;;;;;;8.10;7.00;;;9.10;99.90;;;;;;5052945;28;20077;-59
2022/03/11 06:33:15;;;;;;;8.30;6.88;;;9.10;99.90;;;;;;5050551;28;20137;-60
2022/03/11 06:35:41;;;;;;;8.50;6.82;;;9.10;99.90;;;;;;5052720;28;20037;-59
2022/03/11 06:38:08;;;;;;;8.82;7.40;;;9.10;99.90;;;;;;5051936;28;20304;-59
2022/03/11 06:40:36;;;;;;;9.50;7.38;;;9.00;99.90;;;;;;5052924;28;20076;-60
2022/03/11 06:43:03;;;;;;;9.55;7.22;;;9.00;99.90;;;;;;5049206;28;20085;-60
2022/03/11 06:45:30;;;;;;;8.35;6.55;;;9.00;99.90;;;;;;5044507;28;20118;-59
2022/03/11 06:47:57;;;;;;;9.00;7.82;;;9.00;99.90;;;;;;5042453;28;20127;-60
2022/03/11 06:50:24;;;;;;;9.35;7.70;;;9.00;99.90;;;;;;5045537;28;20472;-59
2022/03/11 06:52:50;;;;;;;9.20;7.30;;;9.00;99.90;;;;;;5062737;28;20148;-60
2022/03/11 06:55:17;;;;;;;8.10;6.72;;;9.00;99.90;;;;;;5063071;28;20082;-60
2022/03/11 06:57:45;;;;;;;9.05;7.30;;;9.00;99.90;;;;;;5062325;28;20050;-59
2022/03/11 07:00:13;;;;;;;8.73;7.78;;;9.10;99.90;;;;;;5045375;28;20083;-60
2022/03/11 07:02:39;;;;;;;9.70;7.63;;;9.10;99.90;;;;;;5061900;28;20356;-59
2022/03/11 07:05:07;;;;;;;9.75;7.85;;;9.10;99.90;;;;;;5059731;28;20380;-59
2022/03/11 07:07:33;;;;;;;9.23;6.95;;;9.10;99.90;;;;;;5062696;28;20095;-59
2022/03/11 07:10:01;;;;;;;7.90;6.65;;;9.20;99.90;;;;;;5061965;28;20218;-59
2022/03/11 07:12:28;;;;;;;9.40;6.82;;;9.20;99.90;;;;;;5061245;28;20530;-59
2022/03/11 07:14:55;;;;;;;8.35;6.78;;;9.20;99.90;;;;;;5059328;28;20127;-59
2022/03/11 07:17:21;;;;;;;10.18;7.82;;;9.30;99.90;;;;;;5057906;28;20106;-60
2022/03/11 07:19:48;;;;;;;10.40;8.18;;;9.30;99.90;;;;;;5039580;28;20337;-59
2022/03/11 07:22:15;;;;;;;8.27;6.88;;;9.40;99.90;;;;;;5053436;28;20088;-60
2022/03/11 07:24:42;;;;;;;7.95;6.45;;;9.40;99.90;;;;;;5060246;28;20071;-60
2022/03/11 07:27:09;;;;;;;7.75;6.18;;;9.50;99.90;;;;;;5059487;28;20127;-59
2022/03/11 07:29:36;;;;;;;7.05;5.93;;;9.60;99.90;;;;;;5056278;28;20095;-60
2022/03/11 07:32:03;;;;;;;6.28;5.63;;;9.60;99.90;;;;;;5045919;28;20048;-60
2022/03/11 07:34:30;;;;;;;7.45;5.80;;;9.70;99.90;;;;;;5021766;28;20056;-60
2022/03/11 07:36:57;;;;;;;8.18;6.45;;;9.70;99.90;;;;;;5033505;28;20099;-61
2022/03/11 07:39:24;;;;;;;7.53;6.10;;;9.80;99.90;;;;;;5055526;28;20526;-60
2022/03/11 07:41:51;;;;;;;7.90;5.80;;;9.90;99.90;;;;;;5047455;28;20069;-60
2022/03/11 07:44:18;;;;;;;7.05;6.03;;;10.00;99.90;;;;;;5045678;28;20057;-60
2022/03/11 07:46:53;;;;;;;8.05;5.38;;;10.00;99.90;;;;;;5022878;28;20048;-60
2022/03/11 07:49:22;;;;;;;8.48;6.72;;;10.10;99.90;;;;;;5052463;28;20112;-60
2022/03/11 07:51:49;;;;;;;6.68;5.38;;;10.20;99.90;;;;;;5056028;28;20048;-59
2022/03/11 07:54:15;;;;;;;6.07;5.13;;;10.30;99.90;;;;;;5052676;28;20091;-59
2022/03/11 07:56:42;;;;;;;7.13;5.82;;;10.30;99.90;;;;;;5056351;28;20135;-60
2022/03/11 07:59:09;;;;;;;6.97;5.60;;;10.40;99.90;;;;;;5056556;28;20137;-58
2022/03/11 08:01:36;;;;;;;7.25;5.82;;;10.40;99.90;;;;;;5051535;28;20608;-59
2022/03/11 08:04:04;;;;;;;7.38;6.00;;;10.50;99.90;;;;;;5050728;28;20389;-58
2022/03/11 08:06:31;;;;;;;6.53;5.57;;;10.50;99.90;;;;;;5038386;28;20079;-60
2022/03/11 08:08:58;;;;;;;6.53;5.63;;;10.60;99.90;;;;;;5038761;28;20056;-59
2022/03/11 08:11:25;;;;;;;6.45;5.70;;;10.70;99.90;;;;;;5056475;28;20148;-59
2022/03/11 08:13:52;;;;;;;7.40;6.28;;;10.70;99.90;;;;;;5055082;28;20083;-60
2022/03/11 08:16:20;;;;;;;7.07;5.82;;;10.80;99.90;;;;;;5050107;28;20128;-60
2022/03/11 08:18:47;;;;;;;6.60;5.40;;;10.80;99.90;;;;;;5043490;28;20057;-60
2022/03/11 08:21:16;;;;;;;7.10;6.25;;;10.90;99.90;;;;;;5042895;28;20545;-59
2022/03/11 08:23:43;;;;;;;9.45;6.10;;;11.00;99.90;;;;;;5053265;28;20057;-62
2022/03/11 08:26:11;;;;;;;7.63;6.07;;;11.00;99.90;;;;;;5056622;28;20139;-60
2022/03/11 08:28:44;;;;;;;5.82;5.22;;;11.10;99.90;;;;;;5054436;28;20048;-60
2022/03/11 08:31:32;;;;;;;7.13;5.40;;;11.10;99.90;;;;;;5049630;28;20557;-59
2022/03/11 08:33:59;;;;;;;7.35;5.60;;;11.20;99.90;;;;;;5044737;28;20190;-58
2022/03/11 08:36:26;;;;;;;6.47;5.50;;;11.30;99.90;;;;;;5053599;28;20102;-59
2022/03/11 08:38:54;;;;;;;6.93;5.50;;;11.40;99.90;;;;;;5045572;28;20553;-60
2022/03/11 08:41:22;;;;;;;7.22;5.45;;;11.50;99.90;;;;;;5048204;28;20045;-60
2022/03/11 08:43:49;;;;;;;5.50;4.57;;;11.60;99.90;;;;;;5050609;28;20053;-60
2022/03/11 08:46:15;;;;;;;6.18;5.57;;;11.70;99.90;;;;;;5045868;28;20110;-60
2022/03/11 08:48:43;;;;;;;6.25;4.97;;;11.70;99.90;;;;;;5044745;28;20040;-60
2022/03/11 08:51:10;;;;;;;6.40;5.32;;;11.80;99.90;;;;;;5050669;28;20452;-59
2022/03/11 08:53:37;;;;;;;6.47;5.07;;;11.80;99.90;;;;;;5050540;28;20052;-59
2022/03/11 08:56:04;;;;;;;5.78;4.28;;;12.00;99.90;;;;;;5052361;28;20064;-60
2022/03/11 08:58:31;;;;;;;5.22;4.70;;;12.10;99.90;;;;;;5050630;28;20200;-59
2022/03/11 09:00:57;;;;;;;4.60;4.07;;;12.10;99.90;;;;;;5046541;28;20259;-60
2022/03/11 09:03:24;;;;;;;5.03;4.53;;;12.20;99.90;;;;;;5045773;28;20063;-59
2022/03/11 09:05:52;;;;;;;5.60;4.68;;;12.30;99.90;;;;;;5055628;28;20083;-59
2022/03/11 09:08:18;;;;;;;4.60;4.10;;;12.40;99.90;;;;;;5054581;28;20148;-59
2022/03/11 09:10:45;;;;;;;5.88;4.13;;;12.60;99.90;;;;;;5057071;28;20155;-60
2022/03/11 09:13:12;;;;;;;5.43;3.60;;;12.70;99.90;;;;;;5037111;28;20099;-60
2022/03/11 09:15:39;;;;;;;4.25;3.47;;;12.90;99.90;;;;;;5052382;28;20150;-60
2022/03/11 09:18:10;;;;;;;4.95;4.45;;;12.90;99.90;;;;;;5056217;28;20129;-60
2022/03/11 09:20:37;;;;;;;5.15;4.60;;;13.00;99.90;;;;;;5057841;28;20410;-59
2022/03/11 09:23:05;;;;;;;5.15;4.15;;;12.90;99.90;;;;;;5050846;28;20118;-59
2022/03/11 09:25:31;;;;;;;5.25;4.18;;;13.10;99.90;;;;;;5056059;28;20041;-59
2022/03/11 09:28:06;;;;;;;5.05;3.70;;;13.20;99.90;;;;;;5052207;28;20067;-59
2022/03/11 09:30:33;;;;;;;6.03;4.38;;;13.30;99.90;;;;;;5039333;28;20145;-59
2022/03/11 09:33:00;;;;;;;5.65;4.20;;;13.30;99.90;;;;;;5045875;28;20075;-60
2022/03/11 09:35:27;;;;;;;5.60;3.55;;;13.30;99.90;;;;;;5048826;28;20095;-60
2022/03/11 09:37:53;;;;;;;3.75;3.35;;;13.40;99.90;;;;;;5047883;28;20503;-60
2022/03/11 09:40:21;;;;;;;3.75;2.95;;;13.50;99.90;;;;;;5057134;28;20155;-60
2022/03/11 09:42:50;;;;;;;4.75;3.70;;;13.60;99.90;;;;;;5052094;28;20045;-60
2022/03/11 09:45:18;;;;;;;4.18;3.47;;;13.60;99.90;;;;;;5035841;28;20471;-59
2022/03/11 09:47:45;;;;;;;4.10;3.42;;;13.60;99.90;;;;;;5050199;28;20231;-60
2022/03/11 09:50:12;;;;;;;5.10;3.70;;;13.70;99.90;;;;;;5012994;28;20080;-60
2022/03/11 09:52:39;;;;;;;5.18;3.58;;;13.70;99.90;;;;;;5056985;28;20048;-59
2022/03/11 09:55:07;;;;;;;4.03;3.05;;;13.70;99.90;;;;;;5042131;28;20488;-60
2022/03/11 09:57:34;;;;;;;3.85;2.90;;;13.80;99.90;;;;;;5052951;28;20058;-59
2022/03/11 10:00:01;;;;;;;4.78;3.70;;;13.90;99.90;;;;;;5042588;28;20056;-60
2022/03/11 10:02:27;;;;;;;4.05;3.50;;;13.90;99.90;;;;;;5046564;28;20139;-59
2022/03/11 10:04:57;;;;;;;4.28;3.63;;;13.90;99.90;;;;;;5057767;28;20458;-60
2022/03/11 10:07:44;;;;;;;4.40;3.03;;;14.00;99.90;;;;;;5061044;28;20060;-60
2022/03/11 10:10:16;;;;;;;3.25;2.78;;;14.10;99.90;;;;;;5031711;28;20080;-60
2022/03/11 10:13:03;;;;;;;3.75;2.80;;;14.20;99.90;;;;;;5028055;28;20045;-60
2022/03/11 10:15:29;;;;;;;3.45;2.70;;;14.20;99.90;;;;;;5059100;28;20581;-59
2022/03/11 10:17:57;;;;;;;3.28;2.90;;;14.30;99.90;;;;;;5058499;28;20049;-60
2022/03/11 10:20:25;;;;;;;3.55;2.45;;;14.30;99.90;;;;;;5051600;28;20384;-60
2022/03/11 10:22:52;;;;;;;4.25;2.95;;;14.30;99.90;;;;;;5052106;28;20068;-60
2022/03/11 10:25:21;;;;;;;3.75;3.20;;;14.30;99.90;;;;;;5060275;28;20095;-60
2022/03/11 10:27:56;;;;;;;3.72;3.10;;;14.40;99.90;;;;;;5038394;28;20085;-60
2022/03/11 10:30:23;;;;;;;3.15;2.42;;;14.50;99.90;;;;;;5038972;28;20579;-60
2022/03/11 10:32:54;;;;;;;3.88;2.58;;;14.50;99.90;;;;;;5036907;28;20391;-60
2022/03/11 10:35:29;;;;;;;4.03;2.58;;;14.70;99.90;;;;;;5035496;28;20172;-59
2022/03/11 10:38:10;;;;;;;3.30;2.50;;;14.70;99.90;;;;;;5025729;28;20351;-60
2022/03/11 10:40:41;;;;;;;4.07;2.80;;;14.70;99.90;;;;;;5025648;28;20081;-60
2022/03/11 10:43:25;;;;;;;6.05;3.72;;;14.70;99.90;;;;;;5031652;28;20527;-60
2022/03/11 10:45:55;;;;;;;4.63;3.35;;;14.60;99.90;;;;;;5037000;28;20534;-60
2022/03/11 10:48:46;;;;;;;4.55;2.85;;;14.50;99.90;;;;;;5017474;28;20351;-59
2022/03/11 10:51:20;;;;;;;3.53;2.67;;;14.60;99.90;;;;;;5031581;28;20081;-61
2022/03/11 10:53:50;;;;;;;3.85;2.67;;;14.60;99.90;;;;;;5037253;28;20049;-60
2022/03/11 10:56:35;;;;;;;4.25;3.53;;;14.60;99.90;;;;;;5036691;28;20393;-61
2022/03/11 10:59:24;;;;;;;3.78;2.65;;;14.60;99.90;;;;;;5024425;28;20563;-60
2022/03/11 11:01:52;;;;;;;3.58;2.83;;;14.60;99.90;;;;;;5033878;28;20103;-60
2022/03/11 11:04:19;;;;;;;3.35;2.83;;;14.60;99.90;;;;;;5024916;28;20479;-60
2022/03/11 11:06:46;;;;;;;3.25;2.80;;;14.60;99.90;;;;;;5027719;28;20085;-60
2022/03/11 11:09:13;;;;;;;3.17;2.88;;;14.70;99.90;;;;;;5026549;28;20119;-60
2022/03/11 11:11:40;;;;;;;4.18;3.03;;;14.70;99.90;;;;;;5027459;28;20471;-60
2022/03/11 11:14:10;;;;;;;4.15;3.67;;;14.60;99.90;;;;;;5031675;28;20079;-60
2022/03/11 11:16:40;;;;;;;4.90;3.78;;;14.60;99.90;;;;;;5021381;28;20552;-60
2022/03/11 11:19:12;;;;;;;4.32;3.70;;;14.40;99.90;;;;;;5027964;28;20321;-60
2022/03/11 11:21:39;;;;;;;4.75;3.00;;;14.30;99.90;;;;;;5038587;28;20134;-60
2022/03/11 11:24:12;;;;;;;4.28;3.20;;;14.10;99.90;;;;;;5037890;28;20076;-60
2022/03/11 11:26:39;;;;;;;3.50;3.20;;;14.00;99.90;;;;;;5036284;28;20134;-60
2022/03/11 11:29:06;;;;;;;4.00;3.28;;;13.90;99.90;;;;;;5039163;28;20115;-59
2022/03/11 11:31:32;;;;;;;4.72;3.70;;;14.00;99.90;;;;;;5038076;28;20132;-60
2022/03/11 11:33:59;;;;;;;4.30;3.47;;;14.00;99.90;;;;;;5019799;28;20144;-60
2022/03/11 11:36:34;;;;;;;4.68;3.65;;;14.20;99.90;;;;;;5021365;28;20082;-59
2022/03/11 11:39:03;;;;;;;3.60;2.95;;;14.30;99.90;;;;;;5039290;28;20136;-59
2022/03/11 11:41:30;;;;;;;3.08;2.60;;;14.50;99.90;;;;;;5039321;28;20424;-60
2022/03/11 11:44:04;;;;;;;3.05;2.50;;;14.70;99.90;;;;;;5039178;28;20087;-60
2022/03/11 11:46:36;;;;;;;3.75;3.03;;;14.80;99.90;;;;;;5038842;28;20084;-59
2022/03/11 11:49:07;;;;;;;3.17;2.45;;;14.80;99.90;;;;;;5037799;28;20110;-59
2022/03/11 11:51:37;;;;;;;3.25;2.90;;;14.90;99.90;;;;;;5039075;28;20111;-60
2022/03/11 11:54:08;;;;;;;3.63;2.90;;;14.90;99.90;;;;;;5038744;28;20087;-60
2022/03/11 11:56:42;;;;;;;5.28;4.15;;;14.90;99.90;;;;;;5038883;28;20056;-60
2022/03/11 11:59:10;;;;;;;4.53;3.55;;;14.80;99.90;;;;;;5038825;28;20167;-59
2022/03/11 12:01:44;;;;;;;4.20;3.45;;;15.00;99.90;;;;;;5038546;28;20099;-60
2022/03/11 12:04:25;;;;;;;5.55;3.75;;;15.10;99.90;;;;;;5035652;28;20099;-60
2022/03/11 12:07:17;;;;;;;5.10;3.72;;;15.10;99.90;;;;;;5037761;28;20594;-61
2022/03/11 12:09:54;;;;;;;4.47;4.07;;;15.00;99.90;;;;;;5037986;28;20082;-60
2022/03/11 12:12:20;;;;;;;4.43;3.10;;;15.10;99.90;;;;;;5037838;28;20265;-59
2022/03/11 12:15:05;;;;;;;4.10;3.15;;;15.20;99.90;;;;;;5038372;28;20115;-60
2022/03/11 12:17:38;;;;;;;3.72;3.13;;;15.20;99.90;;;;;;5037667;28;20460;-59
2022/03/11 12:20:24;;;;;;;3.65;3.10;;;15.20;99.90;;;;;;5037844;28;20148;-60
2022/03/11 12:22:56;;;;;;;4.28;3.35;;;15.10;99.90;;;;;;5037877;28;20053;-60
2022/03/11 12:25:25;;;;;;;4.03;3.60;;;15.00;99.90;;;;;;5038220;28;20151;-60
2022/03/11 12:27:59;;;;;;;4.70;3.40;;;14.80;99.90;;;;;;5056156;28;20236;-60
2022/03/11 12:30:30;;;;;;;4.25;3.38;;;14.60;99.90;;;;;;5058486;28;20094;-60
2022/03/11 12:33:10;;;;;;;5.30;3.58;;;14.40;99.90;;;;;;5057152;28;20289;-60
2022/03/11 12:35:37;;;;;;;3.50;2.80;;;14.30;99.90;;;;;;5057843;28;20527;-60
2022/03/11 12:38:04;;;;;;;5.10;3.00;;;14.50;99.90;;;;;;5058547;28;20127;-59
2022/03/11 12:40:32;;;;;;;3.95;2.80;;;14.50;99.90;;;;;;5039965;28;20052;-59
2022/03/11 12:43:00;;;;;;;4.32;2.80;;;14.50;99.90;;;;;;5040376;28;20083;-59
2022/03/11 12:45:34;;;;;;;6.75;3.30;;;14.50;99.90;;;;;;5058197;28;20133;-60
2022/03/11 12:48:01;;;;;;;3.53;2.83;;;14.30;99.90;;;;;;5057422;28;20053;-58
2022/03/11 12:50:28;;;;;;;4.32;3.50;;;14.20;99.90;;;;;;5057187;28;20132;-60
2022/03/11 12:52:57;;;;;;;3.30;2.55;;;14.10;99.90;;;;;;5058173;28;20574;-61
2022/03/11 12:55:26;;;;;;;5.28;2.67;;;14.10;99.90;;;;;;5057744;28;20101;-60